Archival Weather

Moundou

Moundou, Chad (FTTD)

Report from: Friday, April 19, 2024 10:00 AM WAT
Current time: Tuesday, May 21, 2024 5:17 PM WAT

Current weather – Weather history – Daily summaries
Weather forecast

Temperature34.0°C (93.2°F)
Heat index35.8°C (96.4°F)
Dew point19.0°C (66.2°F)
Winds 4 kts (2.1 m/s, 4.6 mph) Southwest (220°)
Clouds Sky clear
Altimeter29.85 in.Hg (1011 mB)
Relative humidity41 %
Density altitude2,534 ft. (772 m)
Remarks Ceiling and visibility OK
Flight conditions Visual Meteorological Conditions
Raw dataFTTD 190900Z 22004KT CAVOK 34/19 Q1011
An error has occurred. This application may no longer respond until reloaded. Reload 🗙